Time;durP1;ratioP1;P1;durP2;ratioP2;P2;SDS_P1;SDS_P2;PMS_P1;PMS_P2;Temp;Humidity;BMP_temperature;BMP_pressure;BME280_temperature;BME280_humidity;BME280_pressure;Samples;Min_cycle;Max_cycle;Signal;HPM_P1;HPM_P2
2022/01/28 00:00:35;;;;;;;10.23;6.22;;;;;;;0.51;97.90;97681.69;2071985;28;20225;-61
2022/01/28 00:01:45;;;;;;;11.13;6.40;;;;;;;0.50;97.98;97684.28;2071579;28;20232;-60
2022/01/28 00:03:01;;;;;;;12.05;6.57;;;;;;;0.29;97.59;97646.69;2071247;28;20205;-60
2022/01/28 00:04:12;;;;;;;11.40;6.78;;;;;;;0.49;97.51;97667.97;2072535;28;20584;-60
2022/01/28 00:05:19;;;;;;;8.60;5.40;;;;;;;0.55;97.72;97680.78;2072070;28;20218;-60
2022/01/28 00:06:21;;;;;;;10.07;5.20;;;;;;;0.52;97.49;97688.53;2071476;28;20194;-60
2022/01/28 00:07:22;;;;;;;10.18;6.35;;;;;;;0.58;97.49;97692.75;2072653;28;20194;-60
2022/01/28 00:08:24;;;;;;;13.68;6.20;;;;;;;0.67;97.18;97689.25;2072231;28;20232;-60
2022/01/28 00:09:26;;;;;;;10.98;6.07;;;;;;;0.68;97.07;97689.19;2071375;28;20210;-60
2022/01/28 00:10:28;;;;;;;10.60;6.13;;;;;;;0.74;96.78;97688.28;2071102;28;20190;-60
2022/01/28 00:11:29;;;;;;;10.15;5.32;;;;;;;0.78;96.54;97689.94;2071983;28;20209;-60
2022/01/28 00:12:32;;;;;;;9.73;5.90;;;;;;;0.77;96.91;97691.66;2070751;28;20641;-60
2022/01/28 00:13:39;;;;;;;9.00;5.32;;;;;;;0.75;96.74;97685.69;2072379;28;20194;-63
2022/01/28 00:14:50;;;;;;;11.27;6.03;;;;;;;0.81;96.98;97695.06;2071927;28;20779;-60
2022/01/28 00:36:29;;;;;;;7.82;4.93;;;;;;;0.88;96.58;97703.56;2072289;28;20208;-60
2022/01/28 00:38:13;;;;;;;12.02;5.70;;;;;;;0.96;95.21;97705.19;2072216;28;20204;-60
2022/01/28 00:39:15;;;;;;;11.30;5.97;;;;;;;1.15;95.43;97733.31;2072330;28;20212;-60
2022/01/28 00:40:16;;;;;;;13.63;4.82;;;;;;;1.16;95.38;97740.22;2071840;28;20691;-60
2022/01/28 00:41:18;;;;;;;7.20;4.40;;;;;;;1.17;95.23;97737.59;2072141;28;20228;-61
2022/01/28 00:42:19;;;;;;;7.70;5.30;;;;;;;1.14;95.26;97731.63;2072380;28;20206;-60
2022/01/28 00:43:21;;;;;;;12.50;5.68;;;;;;;1.11;95.55;97737.66;2072286;28;20204;-61
2022/01/28 00:44:23;;;;;;;9.07;4.95;;;;;;;1.10;95.37;97732.56;2071011;28;20194;-61
2022/01/28 00:45:25;;;;;;;10.57;5.15;;;;;;;1.10;95.47;97730.81;2072268;28;20202;-61
2022/01/28 00:46:26;;;;;;;12.25;6.20;;;;;;;1.12;95.35;97736.81;2072224;28;20201;-61
2022/01/28 00:47:28;;;;;;;7.90;4.68;;;;;;;1.13;95.43;97735.06;2072373;28;20241;-60
2022/01/28 00:48:29;;;;;;;7.70;4.80;;;;;;;1.12;95.31;97725.66;2072205;28;20208;-60
2022/01/28 00:49:31;;;;;;;10.38;5.43;;;;;;;1.09;95.41;97742.00;2071665;28;20205;-60
2022/01/28 00:50:33;;;;;;;13.38;6.05;;;;;;;1.11;95.59;97736.81;2072250;28;20743;-60
2022/01/28 00:51:34;;;;;;;6.78;4.82;;;;;;;1.08;95.52;97739.44;2072273;28;20198;-60
2022/01/28 00:52:36;;;;;;;9.68;5.05;;;;;;;1.10;95.53;97732.56;2072006;28;20194;-60
2022/01/28 00:53:37;;;;;;;12.57;5.30;;;;;;;0.87;95.66;97714.78;2072195;28;20205;-60
2022/01/28 00:54:39;;;;;;;7.18;5.10;;;;;;;1.08;95.88;97747.16;2071666;28;20202;-61
2022/01/28 00:55:40;;;;;;;10.75;6.10;;;;;;;0.99;95.51;97720.63;2072285;28;20197;-60
2022/01/28 00:56:42;;;;;;;12.18;6.18;;;;;;;1.08;95.61;97744.59;2071678;28;20209;-60
2022/01/28 00:57:43;;;;;;;7.85;5.38;;;;;;;1.07;95.57;97753.22;2072254;28;20201;-60
2022/01/28 00:58:45;;;;;;;8.30;5.43;;;;;;;0.98;95.82;97749.00;2072401;28;20204;-60
2022/01/28 00:59:46;;;;;;;8.02;5.45;;;;;;;0.98;95.94;97739.56;2071761;28;20586;-60
2022/01/28 01:00:47;;;;;;;12.27;6.25;;;;;;;0.93;95.56;97727.59;2072194;28;20694;-60
2022/01/28 01:01:49;;;;;;;10.80;5.68;;;;;;;1.09;95.66;97752.31;2079145;28;20201;-60
2022/01/28 01:02:51;;;;;;;9.65;5.68;;;;;;;1.02;95.72;97752.41;2079495;28;20211;-60
2022/01/28 01:03:52;;;;;;;10.43;6.05;;;;;;;1.04;95.75;97748.09;2072083;28;20201;-60
2022/01/28 01:04:54;;;;;;;15.88;6.22;;;;;;;1.02;95.79;97760.16;2071693;28;20222;-60
2022/01/28 01:05:55;;;;;;;10.35;5.25;;;;;;;0.88;95.67;97732.81;2075296;28;20201;-61
2022/01/28 01:06:57;;;;;;;10.32;6.05;;;;;;;1.03;95.66;97752.41;2075522;28;20244;-60
2022/01/28 01:07:59;;;;;;;13.73;6.40;;;;;;;1.04;95.65;97750.66;2070107;28;20745;-60
2022/01/28 01:09:02;;;;;;;11.55;6.25;;;;;;;1.04;95.59;97761.88;2071890;28;20214;-61
2022/01/28 01:10:05;;;;;;;8.95;6.15;;;;;;;0.99;96.07;97764.47;2070141;28;20225;-61
2022/01/28 01:11:07;;;;;;;9.63;6.05;;;;;;;1.04;95.91;97766.16;2071968;28;20194;-60
2022/01/28 01:12:10;;;;;;;13.27;7.88;;;;;;;0.86;95.64;97737.13;2071605;28;20585;-60
2022/01/28 01:13:12;;;;;;;10.18;6.20;;;;;;;1.06;95.82;97766.97;2071526;28;20577;-60
2022/01/28 01:14:13;;;;;;;10.00;6.63;;;;;;;1.06;95.62;97765.28;2072122;28;20208;-60
2022/01/28 01:15:20;;;;;;;12.95;6.60;;;;;;;1.09;95.47;97762.63;2071558;28;20561;-60
2022/01/28 01:16:33;;;;;;;12.65;5.65;;;;;;;1.05;95.46;97762.72;2072063;28;20201;-60
2022/01/28 01:17:44;;;;;;;13.48;5.82;;;;;;;0.96;95.84;97759.38;2072024;28;20204;-60
2022/01/28 01:19:17;;;;;;;10.35;6.50;;;;;;;0.99;95.84;97764.47;2072165;28;20202;-61
2022/01/28 01:20:37;;;;;;;9.75;6.13;;;;;;;0.99;96.00;97771.38;2071333;28;20550;-60
2022/01/28 01:21:41;;;;;;;13.93;5.72;;;;;;;1.04;95.54;97771.31;2073400;28;20217;-60
2022/01/28 01:22:51;;;;;;;9.05;5.60;;;;;;;0.82;95.30;97735.44;2075087;28;20193;-60
2022/01/28 01:23:55;;;;;;;10.30;6.05;;;;;;;1.02;95.37;97776.50;2072161;28;20201;-60
2022/01/28 01:25:03;;;;;;;8.88;6.18;;;;;;;0.97;95.41;97758.47;2071659;28;20305;-60
2022/01/28 01:26:10;;;;;;;8.00;4.75;;;;;;;0.96;94.97;97764.53;2072048;28;20206;-61
2022/01/28 01:27:11;;;;;;;10.63;4.90;;;;;;;0.97;95.33;97773.13;2072224;28;20642;-60
2022/01/28 01:28:14;;;;;;;12.48;5.43;;;;;;;0.93;95.63;97777.44;2072106;28;20648;-60
2022/01/28 01:29:18;;;;;;;10.52;6.03;;;;;;;0.96;95.43;97771.41;2073555;28;20221;-61
2022/01/28 01:30:20;;;;;;;7.85;5.13;;;;;;;0.92;95.34;97773.19;2073062;28;20248;-60
2022/01/28 01:31:23;;;;;;;9.48;5.47;;;;;;;0.95;95.28;97780.03;2072965;28;20232;-60
2022/01/28 01:32:25;;;;;;;12.82;6.18;;;;;;;0.89;95.22;97780.09;2073085;28;20190;-60
2022/01/28 01:33:29;;;;;;;10.68;5.85;;;;;;;0.88;95.13;97763.78;2073574;28;20194;-61
2022/01/28 01:34:30;;;;;;;11.48;5.95;;;;;;;0.86;95.09;97770.66;2073090;28;20844;-60
2022/01/28 01:35:32;;;;;;;10.30;5.60;;;;;;;0.86;95.38;97768.06;2073625;28;20686;-61
2022/01/28 01:36:34;;;;;;;9.00;4.93;;;;;;;0.81;95.32;97762.13;2073672;28;20553;-61
2022/01/28 01:37:35;;;;;;;14.02;6.22;;;;;;;0.84;95.45;97761.22;2073645;28;20201;-61
2022/01/28 01:38:39;;;;;;;8.02;5.28;;;;;;;0.84;95.13;97769.81;2073656;28;20225;-60
2022/01/28 01:39:42;;;;;;;8.40;5.10;;;;;;;0.82;95.15;97763.81;2071630;28;20202;-60
2022/01/28 01:40:52;;;;;;;6.13;4.50;;;;;;;0.90;94.78;97774.06;2073640;28;20720;-61
2022/01/28 01:42:00;;;;;;;8.93;4.40;;;;;;;0.83;94.82;97775.84;2073136;28;20206;-60
2022/01/28 01:43:31;;;;;;;8.80;4.85;;;;;;;0.78;95.04;97775.91;2073409;28;20205;-60
2022/01/28 01:46:30;;;;;;;9.38;4.28;;;;;;;0.77;94.94;97781.94;2073381;28;20197;-61
2022/01/28 01:52:46;;;;;;;6.57;3.88;;;;;;;0.48;94.55;97753.03;2073520;28;20637;-60
2022/01/28 01:53:48;;;;;;;8.43;5.03;;;;;;;0.63;95.24;97786.41;2073077;28;20193;-60
2022/01/28 01:54:50;;;;;;;6.25;4.00;;;;;;;0.67;94.96;97789.81;2073047;28;20222;-60
2022/01/28 01:55:52;;;;;;;6.35;4.80;;;;;;;0.65;94.86;97789.81;2073048;28;20201;-60
2022/01/28 01:56:55;;;;;;;8.73;4.45;;;;;;;0.61;95.29;97793.28;2073402;28;20197;-60
2022/01/28 01:57:56;;;;;;;10.30;5.13;;;;;;;0.55;95.45;97798.53;2072333;28;20212;-60
2022/01/28 01:58:58;;;;;;;7.30;4.38;;;;;;;0.58;95.24;97799.31;2073538;28;20549;-61
2022/01/28 02:00:00;;;;;;;6.32;4.32;;;;;;;0.54;95.27;97786.47;2072916;28;20225;-60
2022/01/28 02:01:02;;;;;;;9.20;4.65;;;;;;;0.32;95.33;97765.22;2073513;28;20642;-60
2022/01/28 02:02:05;;;;;;;10.13;4.50;;;;;;;0.53;95.50;97801.09;2073428;28;20240;-60
2022/01/28 02:03:07;;;;;;;7.55;4.40;;;;;;;0.50;95.06;97798.53;2073571;28;20189;-60
2022/01/28 02:04:09;;;;;;;8.38;4.80;;;;;;;0.46;95.05;97793.44;2073325;28;20249;-60
2022/01/28 02:05:11;;;;;;;8.70;4.82;;;;;;;0.47;95.15;97798.59;2072631;28;20228;-61
2022/01/28 02:06:12;;;;;;;8.00;4.47;;;;;;;0.43;95.21;97796.88;2073212;28;20198;-60
2022/01/28 02:07:17;;;;;;;10.95;4.70;;;;;;;0.44;95.35;97802.91;2073163;28;20238;-60
2022/01/28 02:08:18;;;;;;;8.75;4.30;;;;;;;0.44;95.47;97808.06;2072023;28;20216;-60
2022/01/28 02:09:20;;;;;;;7.45;4.57;;;;;;;0.44;95.45;97808.91;2072405;28;20600;-60
2022/01/28 02:10:21;;;;;;;8.90;5.10;;;;;;;0.44;95.66;97808.06;2072939;28;20224;-60
2022/01/28 02:11:23;;;;;;;8.77;4.20;;;;;;;0.37;95.47;97814.97;2073355;28;20220;-60
2022/01/28 02:12:24;;;;;;;9.07;5.40;;;;;;;0.35;95.33;97817.59;2073322;28;20552;-60
2022/01/28 02:13:28;;;;;;;10.57;5.18;;;;;;;0.37;95.39;97820.13;2070778;28;20201;-60
2022/01/28 02:14:29;;;;;;;9.10;5.10;;;;;;;0.33;95.55;97805.56;2072851;28;20201;-61
2022/01/28 02:15:31;;;;;;;12.63;4.90;;;;;;;0.38;95.25;97827.03;2073377;28;20243;-60
2022/01/28 02:16:33;;;;;;;12.63;4.70;;;;;;;0.40;95.41;97814.97;2073313;28;20201;-60
2022/01/28 02:17:35;;;;;;;9.40;4.32;;;;;;;0.40;95.01;97820.13;2073440;28;20645;-60
2022/01/28 02:18:36;;;;;;;12.05;4.43;;;;;;;0.32;95.13;97822.75;2073358;28;20528;-61
2022/01/28 02:19:39;;;;;;;10.85;5.32;;;;;;;0.30;95.39;97832.22;2072997;28;20201;-61
2022/01/28 02:20:43;;;;;;;6.90;4.35;;;;;;;0.36;94.78;97823.59;2072984;28;20630;-60
2022/01/28 02:21:48;;;;;;;9.68;4.90;;;;;;;0.42;94.82;97817.53;2073397;28;20545;-60
2022/01/28 02:22:50;;;;;;;16.77;5.00;;;;;;;0.45;94.56;97822.66;2073312;28;20212;-60
2022/01/28 02:24:00;;;;;;;10.82;4.85;;;;;;;0.39;94.68;97816.69;2073348;28;20208;-60
2022/01/28 02:25:02;;;;;;;8.82;5.53;;;;;;;0.43;94.73;97822.66;2072840;28;20227;-60
2022/01/28 02:26:05;;;;;;;9.15;5.03;;;;;;;0.45;94.37;97815.78;2073153;28;20237;-60
2022/01/28 02:27:08;;;;;;;13.60;4.95;;;;;;;0.47;94.27;97813.19;2072268;28;20219;-60
2022/01/28 02:28:13;;;;;;;10.48;4.50;;;;;;;0.41;94.62;97823.53;2073343;28;20209;-60
2022/01/28 02:29:25;;;;;;;10.35;4.88;;;;;;;0.43;94.34;97820.06;2072084;28;20528;-60
2022/01/28 02:30:27;;;;;;;12.07;4.57;;;;;;;0.39;94.80;97818.41;2072077;28;20220;-60
2022/01/28 02:31:28;;;;;;;12.40;5.35;;;;;;;0.34;94.95;97831.34;2073239;28;20819;-60
2022/01/28 02:32:30;;;;;;;6.57;4.60;;;;;;;0.33;94.95;97821.91;2073243;28;20222;-60
2022/01/28 02:33:32;;;;;;;9.65;5.68;;;;;;;0.32;94.93;97820.19;2072328;28;20201;-60
2022/01/28 02:34:35;;;;;;;17.42;6.10;;;;;;;0.34;94.96;97822.75;2072728;28;20206;-61
2022/01/28 02:35:38;;;;;;;13.50;5.32;;;;;;;0.36;94.79;97821.03;2071964;28;20198;-60
2022/01/28 02:36:40;;;;;;;10.60;5.30;;;;;;;0.38;94.74;97824.44;2073195;28;20201;-60
2022/01/28 02:37:41;;;;;;;12.10;7.47;;;;;;;0.34;94.83;97827.91;2073263;28;20204;-60
2022/01/28 02:38:43;;;;;;;11.63;5.22;;;;;;;0.36;94.57;97821.03;2073196;28;20205;-60
2022/01/28 02:39:45;;;;;;;12.10;4.95;;;;;;;0.34;94.73;97825.34;2072685;28;20695;-60
2022/01/28 02:40:51;;;;;;;9.82;5.75;;;;;;;0.32;94.64;97829.66;2071987;28;20221;-61
2022/01/28 02:42:00;;;;;;;8.70;4.82;;;;;;;0.25;95.05;97831.41;2072461;28;20201;-60
2022/01/28 02:43:25;;;;;;;10.63;5.05;;;;;;;0.18;94.56;97815.16;2072916;28;20202;-60
2022/01/28 02:44:41;;;;;;;6.20;4.15;;;;;;;0.28;94.47;97836.53;2072870;28;20206;-60
2022/01/28 02:45:45;;;;;;;10.93;5.75;;;;;;;0.24;94.86;97841.75;2073218;28;20668;-60
2022/01/28 02:47:00;;;;;;;9.25;5.05;;;;;;;0.10;94.76;97822.09;2072909;28;20205;-60
2022/01/28 02:48:06;;;;;;;9.30;5.05;;;;;;;0.27;94.26;97847.72;2072990;28;20197;-60
2022/01/28 02:49:10;;;;;;;10.93;4.97;;;;;;;0.23;94.71;97847.75;2073148;28;20205;-60
2022/01/28 02:50:12;;;;;;;14.20;5.30;;;;;;;0.17;94.85;97851.22;2072498;28;20225;-60
2022/01/28 02:51:17;;;;;;;12.98;5.05;;;;;;;0.12;94.98;97851.28;2073121;28;20212;-60
2022/01/28 02:52:24;;;;;;;9.75;4.93;;;;;;;0.16;95.03;97854.69;2073086;28;20212;-60
2022/01/28 02:53:30;;;;;;;7.43;4.25;;;;;;;0.16;94.77;97850.38;2073028;28;20205;-60
2022/01/28 02:54:44;;;;;;;10.35;4.78;;;;;;;0.22;94.55;97857.22;2071919;28;20201;-60
2022/01/28 02:55:46;;;;;;;10.52;4.15;;;;;;;0.18;94.28;97858.09;2072465;28;20208;-60
2022/01/28 02:56:50;;;;;;;8.85;4.65;;;;;;;0.25;94.52;97856.31;2072493;28;20596;-60
2022/01/28 02:58:03;;;;;;;8.60;5.20;;;;;;;0.26;94.04;97852.91;2073115;28;20205;-60
2022/01/28 02:59:09;;;;;;;13.35;5.15;;;;;;;0.28;94.02;97854.59;2073472;28;20625;-61
2022/01/28 03:00:10;;;;;;;11.15;5.35;;;;;;;0.27;93.98;97852.00;2072360;28;20225;-59
2022/01/28 03:01:17;;;;;;;7.35;5.03;;;;;;;0.32;93.89;97850.28;2072825;28;20205;-59
2022/01/28 03:02:19;;;;;;;6.70;4.15;;;;;;;0.36;93.67;97846.78;2073043;28;20232;-59
2022/01/28 03:03:24;;;;;;;9.63;4.97;;;;;;;0.32;93.36;97843.38;2072978;28;20202;-60
2022/01/28 03:05:34;;;;;;;13.23;4.95;;;;;;;0.31;93.54;97849.38;2072924;28;20653;-59
2022/01/28 03:06:36;;;;;;;8.40;4.53;;;;;;;0.30;93.58;97846.84;2071917;28;20673;-59
2022/01/28 03:07:37;;;;;;;7.15;4.90;;;;;;;0.36;93.49;97851.94;2071736;28;20193;-59
2022/01/28 03:08:43;;;;;;;10.88;5.38;;;;;;;0.32;93.60;97850.28;2072967;28;20205;-59
2022/01/28 03:09:52;;;;;;;7.50;5.10;;;;;;;0.38;93.13;97853.63;2072463;28;20538;-59
2022/01/28 03:12:14;;;;;;;9.40;4.18;;;;;;;0.33;93.30;97846.81;2072726;28;20194;-59
2022/01/28 03:13:30;;;;;;;13.05;4.70;;;;;;;0.35;93.21;97856.25;2072088;28;20205;-59
2022/01/28 03:14:47;;;;;;;9.02;4.85;;;;;;;0.43;93.03;97856.16;2072506;28;20203;-59
2022/01/28 03:15:53;;;;;;;9.98;5.50;;;;;;;0.40;92.91;97861.38;2072841;28;20205;-60
2022/01/28 03:19:17;;;;;;;9.00;4.57;;;;;;;0.47;92.69;97860.47;2072799;28;20530;-59
2022/01/28 03:22:33;;;;;;;6.63;4.15;;;;;;;0.29;93.05;97839.97;2072926;28;20201;-60
2022/01/28 03:23:37;;;;;;;10.30;5.05;;;;;;;0.35;92.90;97853.69;2072818;28;20209;-59
2022/01/28 03:24:41;;;;;;;13.50;5.35;;;;;;;0.46;92.89;97869.03;2071622;28;20288;-60
2022/01/28 03:25:44;;;;;;;6.22;4.28;;;;;;;0.45;93.16;97867.34;2072230;28;20206;-59
2022/01/28 03:26:51;;;;;;;8.73;4.95;;;;;;;0.49;92.93;97874.19;2071989;28;20198;-60
2022/01/28 03:27:56;;;;;;;16.00;6.38;;;;;;;0.50;92.96;97872.44;2072637;28;20263;-60
2022/01/28 03:28:58;;;;;;;10.70;5.68;;;;;;;0.51;93.12;97876.72;2072743;28;20216;-59
2022/01/28 03:29:59;;;;;;;11.05;6.50;;;;;;;0.45;93.08;97857.03;2072214;28;20225;-60
2022/01/28 03:31:01;;;;;;;9.02;5.30;;;;;;;0.24;93.03;97800.53;2072349;28;20198;-59
2022/01/28 03:32:03;;;;;;;9.63;5.72;;;;;;;0.54;93.06;97867.25;2072534;28;20202;-60
2022/01/28 03:33:05;;;;;;;9.80;5.05;;;;;;;0.49;93.22;97858.72;2072567;28;20259;-60
2022/01/28 03:34:06;;;;;;;9.80;5.65;;;;;;;0.04;92.92;97783.50;2072669;28;20842;-59
2022/01/28 03:35:10;;;;;;;8.90;5.45;;;;;;;0.32;93.34;97825.34;2071963;28;20245;-60
2022/01/28 03:36:13;;;;;;;11.10;5.75;;;;;;;0.49;93.41;97858.72;2072459;28;20205;-59
2022/01/28 03:37:15;;;;;;;13.68;5.93;;;;;;;0.53;93.26;97865.56;2072856;28;20213;-59
2022/01/28 03:38:16;;;;;;;14.52;7.20;;;;;;;0.56;93.12;97862.94;2072454;28;20604;-59
2022/01/28 03:39:18;;;;;;;10.15;5.65;;;;;;;0.61;92.96;97865.50;2072496;28;20204;-60
2022/01/28 03:40:20;;;;;;;11.05;5.60;;;;;;;0.49;93.32;97856.13;2071944;28;20213;-60
2022/01/28 03:41:23;;;;;;;13.88;6.85;;;;;;;0.56;93.56;97869.81;2072355;28;20693;-60
2022/01/28 03:42:24;;;;;;;10.73;5.53;;;;;;;0.57;93.37;97872.38;2069732;28;20205;-60
2022/01/28 03:43:26;;;;;;;12.88;5.65;;;;;;;0.51;93.86;97880.19;2072348;28;20198;-60
2022/01/28 03:44:27;;;;;;;10.27;5.55;;;;;;;0.46;93.60;97858.72;2071814;28;20220;-60
2022/01/28 03:45:29;;;;;;;15.02;5.90;;;;;;;0.50;93.72;97870.72;2072141;28;20227;-60
2022/01/28 03:46:31;;;;;;;14.52;6.20;;;;;;;0.58;93.49;97879.25;2072302;28;20640;-60
2022/01/28 03:47:32;;;;;;;12.38;6.78;;;;;;;0.55;93.70;97879.28;2072516;28;20201;-60
2022/01/28 03:48:34;;;;;;;11.25;5.95;;;;;;;0.54;94.07;97881.88;2072640;28;20209;-60
2022/01/28 03:49:35;;;;;;;9.32;5.63;;;;;;;0.61;94.05;97869.75;2071684;28;20193;-60
2022/01/28 03:50:37;;;;;;;11.30;6.38;;;;;;;0.63;93.99;97884.38;2072304;28;20221;-60
2022/01/28 03:51:38;;;;;;;19.48;7.00;;;;;;;0.63;93.91;97884.38;2070712;28;20209;-60
2022/01/28 03:52:40;;;;;;;10.73;5.93;;;;;;;0.57;94.20;97887.00;2072259;28;20205;-60
2022/01/28 03:53:41;;;;;;;10.10;4.90;;;;;;;0.63;94.24;97886.06;2072488;28;20202;-60
2022/01/28 03:54:43;;;;;;;11.68;6.07;;;;;;;0.65;94.13;97871.44;2072027;28;20225;-60
2022/01/28 03:55:46;;;;;;;14.32;6.85;;;;;;;0.65;94.31;97879.19;2072408;28;20198;-60
2022/01/28 03:56:47;;;;;;;14.32;7.72;;;;;;;0.64;93.73;97886.06;2072479;28;20201;-60
2022/01/28 03:57:49;;;;;;;12.48;5.53;;;;;;;0.63;94.08;97880.91;2072301;28;20206;-60
2022/01/28 03:58:50;;;;;;;8.23;5.07;;;;;;;0.65;93.94;97889.50;2072426;28;20204;-60
2022/01/28 03:59:52;;;;;;;12.50;6.35;;;;;;;0.68;93.78;97895.50;2072072;28;20248;-60
2022/01/28 04:00:55;;;;;;;10.13;6.05;;;;;;;0.66;93.79;97892.06;2072477;28;20197;-60
2022/01/28 04:01:56;;;;;;;10.38;5.95;;;;;;;0.64;93.75;97900.69;2073148;28;20217;-60
2022/01/28 04:03:11;;;;;;;12.60;6.90;;;;;;;0.59;94.19;97901.59;2072547;28;20281;-60
2022/01/28 04:11:59;;;;;;;15.02;6.53;;;;;;;0.35;95.34;97896.63;2071834;28;20202;-60
2022/01/28 04:13:01;;;;;;;13.40;6.30;;;;;;;0.34;95.43;97894.91;2071933;28;20681;-60
2022/01/28 04:18:09;;;;;;;18.08;7.03;;;;;;;0.17;96.19;97892.47;2070539;28;20197;-60
2022/01/28 04:19:11;;;;;;;14.43;6.68;;;;;;;0.15;96.28;97895.03;2072462;28;20198;-60
2022/01/28 04:20:13;;;;;;;15.27;7.28;;;;;;;-0.09;95.98;97851.41;2071832;28;20221;-60
2022/01/28 04:21:15;;;;;;;17.77;6.90;;;;;;;0.12;96.32;97895.06;2069829;28;20571;-60
2022/01/28 04:22:17;;;;;;;13.18;7.13;;;;;;;0.10;96.50;97890.78;2072405;28;20208;-59
2022/01/28 04:23:19;;;;;;;14.52;6.65;;;;;;;-0.01;96.35;97870.25;2072431;28;20198;-60
2022/01/28 04:24:20;;;;;;;17.98;7.10;;;;;;;-0.09;96.79;97860.00;2072308;28;20661;-60
2022/01/28 04:25:22;;;;;;;12.48;6.80;;;;;;;0.11;96.77;97892.50;2071879;28;20218;-60
2022/01/28 04:26:23;;;;;;;14.75;7.30;;;;;;;0.14;96.54;97900.22;2072204;28;20208;-60
2022/01/28 04:27:25;;;;;;;16.45;6.82;;;;;;;0.03;96.54;97889.97;2072355;28;20209;-61
2022/01/28 04:28:26;;;;;;;14.55;6.53;;;;;;;0.10;96.66;97907.09;2072176;28;20763;-61
2022/01/28 04:29:28;;;;;;;16.92;7.22;;;;;;;0.14;96.08;97903.66;2071936;28;20503;-61
2022/01/28 04:30:29;;;;;;;11.80;7.00;;;;;;;0.12;96.26;97910.53;2072369;28;20541;-61
2022/01/28 04:31:30;;;;;;;11.75;6.40;;;;;;;0.11;96.40;97913.97;2072379;28;20198;-61
2022/01/28 04:32:33;;;;;;;32.25;6.95;;;;;;;-0.26;96.43;97860.09;2072371;28;20198;-61
2022/01/28 04:33:34;;;;;;;16.25;7.28;;;;;;;0.09;96.20;97909.69;2071926;28;20777;-61
2022/01/28 04:34:36;;;;;;;17.52;6.90;;;;;;;-0.02;96.37;97894.28;2071894;28;20193;-61
2022/01/28 04:35:38;;;;;;;12.65;6.88;;;;;;;0.08;96.48;97919.16;2072222;28;20201;-61
2022/01/28 04:38:19;;;;;;;10.50;5.60;;;;;;;0.07;96.32;97920.00;2072420;28;20205;-61
2022/01/28 04:39:33;;;;;;;10.85;6.25;;;;;;;0.10;96.16;97922.56;2072358;28;20208;-61
2022/01/28 04:40:42;;;;;;;20.90;5.85;;;;;;;0.06;96.18;97918.31;2071460;28;20221;-61
2022/01/28 04:44:07;;;;;;;14.40;6.95;;;;;;;0.04;96.33;97929.47;2072275;28;20560;-61
2022/01/28 04:46:40;;;;;;;10.82;5.68;;;;;;;-0.03;96.39;97934.66;2072318;28;20219;-62
2022/01/28 04:47:55;;;;;;;14.55;6.63;;;;;;;0.03;96.10;97946.66;2071795;28;20201;-61
2022/01/28 04:49:13;;;;;;;10.00;5.35;;;;;;;0.06;96.47;97949.22;2072298;28;20198;-62
2022/01/28 04:50:27;;;;;;;14.15;5.70;;;;;;;0.09;96.29;97953.47;2071811;28;20222;-61
2022/01/28 04:55:43;;;;;;;13.02;6.03;;;;;;;-0.04;96.97;97957.84;2054282;28;20237;-61
2022/01/28 05:00:15;;;;;;;21.10;7.05;;;;;;;0.11;96.74;97957.75;2071774;28;20229;-62
2022/01/28 05:07:33;;;;;;;12.98;6.75;;;;;;;0.03;97.42;97971.56;2073356;28;20268;-62
2022/01/28 05:27:37;;;;;;;12.75;6.20;;;;;;;-0.36;97.49;97921.94;2073091;28;20244;-62
2022/01/28 05:28:40;;;;;;;18.38;6.82;;;;;;;-0.13;98.02;97957.91;2073581;28;20201;-63
2022/01/28 05:29:42;;;;;;;14.35;7.03;;;;;;;-0.09;97.75;97970.75;2073252;28;20224;-63
2022/01/28 05:30:44;;;;;;;15.35;7.90;;;;;;;-0.10;97.51;97965.59;2073672;28;20200;-63
2022/01/28 05:31:46;;;;;;;11.75;6.95;;;;;;;-0.24;97.70;97948.47;2076914;28;20234;-63
2022/01/28 05:32:48;;;;;;;14.32;6.50;;;;;;;-0.08;97.77;97964.75;2075146;28;20200;-63
2022/01/28 05:33:50;;;;;;;15.70;8.20;;;;;;;-0.13;97.36;97966.47;2073672;28;20297;-63
2022/01/28 05:34:51;;;;;;;15.38;6.30;;;;;;;-0.26;97.97;97952.78;2073144;28;20221;-62
2022/01/28 05:35:53;;;;;;;16.92;8.15;;;;;;;-0.21;97.88;97966.50;2073611;28;20200;-63
2022/01/28 05:36:55;;;;;;;11.68;6.57;;;;;;;-0.20;98.06;97962.19;2072684;28;20202;-62
2022/01/28 05:37:56;;;;;;;17.55;7.13;;;;;;;-0.25;97.91;97964.81;2073656;28;20201;-63
2022/01/28 05:38:58;;;;;;;12.88;6.38;;;;;;;-0.21;97.83;97970.81;2073455;28;20259;-63
2022/01/28 05:39:59;;;;;;;17.13;6.30;;;;;;;-0.22;97.84;97969.97;2073158;28;20224;-63
2022/01/28 05:41:01;;;;;;;11.95;6.93;;;;;;;-0.23;97.77;97975.09;2073547;28;20205;-62
2022/01/28 05:42:03;;;;;;;17.20;7.47;;;;;;;-0.28;98.11;97972.53;2073667;28;20194;-63
2022/01/28 05:43:05;;;;;;;15.38;6.80;;;;;;;-0.25;97.74;97967.38;2073552;28;20209;-63
2022/01/28 05:44:06;;;;;;;13.30;6.75;;;;;;;-0.24;98.02;97976.81;2073704;28;20293;-63
2022/01/28 05:45:08;;;;;;;15.55;7.00;;;;;;;-0.19;97.66;97963.09;2072675;28;20221;-62
2022/01/28 05:46:10;;;;;;;16.05;6.60;;;;;;;-0.23;97.68;97982.84;2073672;28;20198;-63
2022/01/28 05:47:15;;;;;;;16.13;7.60;;;;;;;-0.23;97.70;97985.41;2073630;28;20656;-63
2022/01/28 05:48:19;;;;;;;10.63;6.00;;;;;;;-0.29;97.69;97972.56;2073500;28;20649;-63
2022/01/28 05:49:21;;;;;;;13.73;6.97;;;;;;;-0.27;97.62;97968.25;2073390;28;20194;-62
2022/01/28 05:50:23;;;;;;;20.70;7.13;;;;;;;-0.23;97.80;97978.53;2073237;28;20214;-63
2022/01/28 05:51:25;;;;;;;24.02;7.00;;;;;;;-0.23;97.33;97981.09;2073203;28;20212;-63
2022/01/28 05:52:28;;;;;;;18.60;7.75;;;;;;;-0.28;97.46;97974.25;2072847;28;20201;-64
2022/01/28 05:53:29;;;;;;;12.10;6.70;;;;;;;-0.31;97.18;97969.13;2073399;28;20205;-63
2022/01/28 05:54:31;;;;;;;16.70;7.50;;;;;;;-0.24;97.40;97986.25;2073088;28;20213;-63
2022/01/28 05:55:34;;;;;;;13.27;7.32;;;;;;;-0.44;97.16;97958.00;2073357;28;20202;-62
2022/01/28 05:56:36;;;;;;;26.42;11.23;;;;;;;-0.25;97.47;97992.28;2073365;28;20296;-66
2022/01/28 05:57:37;;;;;;;19.35;9.80;;;;;;;-0.26;97.25;97988.81;2073557;28;20201;-66
2022/01/28 05:58:39;;;;;;;16.73;8.35;;;;;;;-0.31;97.48;97987.16;2073361;28;20190;-63
2022/01/28 05:59:40;;;;;;;14.00;7.95;;;;;;;-0.28;97.31;98000.84;2072611;28;20204;-63
2022/01/28 06:00:42;;;;;;;15.00;7.47;;;;;;;-0.28;97.58;97993.13;2073221;28;20197;-63
2022/01/28 06:01:45;;;;;;;13.20;6.97;;;;;;;-0.32;97.28;97995.72;2071557;28;20328;-63
2022/01/28 06:02:47;;;;;;;19.88;7.00;;;;;;;-0.35;97.39;97999.19;2072500;28;20867;-63
2022/01/28 06:03:48;;;;;;;10.45;6.03;;;;;;;-0.32;97.33;98006.88;2073408;28;20205;-64
2022/01/28 06:04:49;;;;;;;15.35;6.80;;;;;;;-0.44;97.16;97991.47;2072841;28;20236;-63
2022/01/28 06:05:51;;;;;;;14.07;6.55;;;;;;;-0.34;97.37;98011.19;2073396;28;20560;-63
2022/01/28 06:06:52;;;;;;;14.02;6.97;;;;;;;-0.40;97.66;98011.19;2073203;28;20197;-63
2022/01/28 06:07:54;;;;;;;15.07;7.10;;;;;;;-0.59;97.73;97982.06;2073403;28;20673;-63
2022/01/28 06:08:56;;;;;;;15.32;6.85;;;;;;;-0.41;97.68;98022.38;2073448;28;20641;-63
2022/01/28 06:09:57;;;;;;;18.50;6.55;;;;;;;-0.40;97.92;98022.34;2072878;28;20224;-63
2022/01/28 06:10:59;;;;;;;20.67;9.50;;;;;;;-0.49;97.94;98017.25;2073419;28;20715;-63
2022/01/28 06:12:00;;;;;;;17.25;8.50;;;;;;;-0.40;98.07;98031.78;2072979;28;20206;-63
2022/01/28 06:13:02;;;;;;;22.38;7.68;;;;;;;-0.46;98.10;98013.78;2073078;28;20693;-63
2022/01/28 06:14:03;;;;;;;19.83;8.15;;;;;;;-0.39;97.99;98025.78;2072906;28;20200;-63
2022/01/28 06:15:05;;;;;;;24.50;8.25;;;;;;;-0.38;98.02;98048.09;2071042;28;20225;-63
2022/01/28 06:16:06;;;;;;;16.27;7.45;;;;;;;-0.46;98.23;98039.53;2071925;28;20733;-64
2022/01/28 06:17:08;;;;;;;17.42;8.70;;;;;;;-0.49;98.47;98042.09;2073389;28;20197;-64
2022/01/28 06:18:11;;;;;;;22.98;10.23;;;;;;;-0.44;98.93;98042.97;2073147;28;20208;-63
2022/01/28 06:19:12;;;;;;;18.60;8.27;;;;;;;-0.42;98.81;98048.97;2072969;28;20232;-64
2022/01/28 06:20:18;;;;;;;15.68;8.07;;;;;;;-0.38;98.74;98053.22;2072633;28;20228;-63
2022/01/28 06:21:19;;;;;;;18.40;8.05;;;;;;;-0.38;98.76;98058.38;2072690;28;20201;-64
2022/01/28 06:22:21;;;;;;;18.25;8.50;;;;;;;-0.44;98.85;98059.25;2073254;28;20198;-64
2022/01/28 06:23:22;;;;;;;16.88;8.80;;;;;;;-0.29;98.91;98065.25;2073308;28;20844;-64
2022/01/28 06:24:24;;;;;;;18.80;8.85;;;;;;;-0.27;98.40;98060.94;2072889;28;20208;-64
2022/01/28 06:25:26;;;;;;;18.10;8.70;;;;;;;-0.28;98.75;98061.81;2072641;28;20204;-64